sensor_id;sensor_type;location;lat;lon;timestamp;P1;durP1;ratioP1;P2;durP2;ratioP2
3867;SDS011;1949;48.152;11.528;2023-05-20T00:02:20;4.47;;;2.93;;
3867;SDS011;1949;48.152;11.528;2023-05-20T00:04:46;4.23;;;2.87;;
3867;SDS011;1949;48.152;11.528;2023-05-20T00:07:15;5.20;;;3.47;;
3867;SDS011;1949;48.152;11.528;2023-05-20T00:12:12;3.83;;;3.10;;
3867;SDS011;1949;48.152;11.528;2023-05-20T00:14:38;6.57;;;3.13;;
3867;SDS011;1949;48.152;11.528;2023-05-20T00:17:03;3.60;;;2.80;;
3867;SDS011;1949;48.152;11.528;2023-05-20T00:19:30;8.10;;;3.60;;
3867;SDS011;1949;48.152;11.528;2023-05-20T00:22:02;6.90;;;3.33;;
3867;SDS011;1949;48.152;11.528;2023-05-20T00:26:56;10.30;;;2.97;;
3867;SDS011;1949;48.152;11.528;2023-05-20T00:29:29;4.40;;;3.20;;
3867;SDS011;1949;48.152;11.528;2023-05-20T00:31:54;5.10;;;3.53;;
3867;SDS011;1949;48.152;11.528;2023-05-20T00:34:20;3.83;;;2.70;;
3867;SDS011;1949;48.152;11.528;2023-05-20T00:36:46;7.47;;;3.20;;
3867;SDS011;1949;48.152;11.528;2023-05-20T00:39:11;3.73;;;3.10;;
3867;SDS011;1949;48.152;11.528;2023-05-20T00:41:37;4.23;;;3.40;;
3867;SDS011;1949;48.152;11.528;2023-05-20T00:46:33;5.60;;;3.47;;
3867;SDS011;1949;48.152;11.528;2023-05-20T00:49:00;6.23;;;3.90;;
3867;SDS011;1949;48.152;11.528;2023-05-20T00:51:27;6.93;;;3.67;;
3867;SDS011;1949;48.152;11.528;2023-05-20T00:53:53;3.97;;;3.07;;
3867;SDS011;1949;48.152;11.528;2023-05-20T00:56:25;5.67;;;3.53;;
3867;SDS011;1949;48.152;11.528;2023-05-20T00:58:55;10.73;;;3.73;;
3867;SDS011;1949;48.152;11.528;2023-05-20T01:01:26;4.97;;;3.50;;
3867;SDS011;1949;48.152;11.528;2023-05-20T01:04:00;4.90;;;3.73;;
3867;SDS011;1949;48.152;11.528;2023-05-20T01:08:58;4.80;;;3.40;;
3867;SDS011;1949;48.152;11.528;2023-05-20T01:11:28;4.10;;;3.20;;
3867;SDS011;1949;48.152;11.528;2023-05-20T01:14:10;8.63;;;3.70;;
3867;SDS011;1949;48.152;11.528;2023-05-20T01:16:40;6.03;;;3.70;;
3867;SDS011;1949;48.152;11.528;2023-05-20T01:19:26;5.47;;;3.37;;
3867;SDS011;1949;48.152;11.528;2023-05-20T01:22:01;5.23;;;3.20;;
3867;SDS011;1949;48.152;11.528;2023-05-20T01:24:30;7.23;;;3.77;;
3867;SDS011;1949;48.152;11.528;2023-05-20T01:26:57;6.03;;;3.70;;
3867;SDS011;1949;48.152;11.528;2023-05-20T01:29:25;6.50;;;3.30;;
3867;SDS011;1949;48.152;11.528;2023-05-20T01:31:52;4.70;;;3.60;;
3867;SDS011;1949;48.152;11.528;2023-05-20T01:34:21;5.97;;;3.67;;
3867;SDS011;1949;48.152;11.528;2023-05-20T01:39:30;7.03;;;4.67;;
3867;SDS011;1949;48.152;11.528;2023-05-20T01:42:02;6.50;;;4.30;;
3867;SDS011;1949;48.152;11.528;2023-05-20T01:44:32;6.17;;;3.70;;
3867;SDS011;1949;48.152;11.528;2023-05-20T01:47:05;4.83;;;3.50;;
3867;SDS011;1949;48.152;11.528;2023-05-20T01:49:30;6.40;;;3.77;;
3867;SDS011;1949;48.152;11.528;2023-05-20T01:51:58;5.43;;;3.50;;
3867;SDS011;1949;48.152;11.528;2023-05-20T01:54:28;5.60;;;3.70;;
3867;SDS011;1949;48.152;11.528;2023-05-20T01:59:27;6.13;;;3.73;;
3867;SDS011;1949;48.152;11.528;2023-05-20T02:04:24;7.63;;;3.60;;
3867;SDS011;1949;48.152;11.528;2023-05-20T02:06:51;12.70;;;4.10;;
3867;SDS011;1949;48.152;11.528;2023-05-20T02:09:18;6.80;;;4.10;;
3867;SDS011;1949;48.152;11.528;2023-05-20T02:14:14;13.10;;;6.57;;
3867;SDS011;1949;48.152;11.528;2023-05-20T02:16:41;9.80;;;5.63;;
3867;SDS011;1949;48.152;11.528;2023-05-20T02:21:58;16.30;;;5.50;;
3867;SDS011;1949;48.152;11.528;2023-05-20T02:24:30;13.37;;;5.90;;
3867;SDS011;1949;48.152;11.528;2023-05-20T02:27:03;10.50;;;4.93;;
3867;SDS011;1949;48.152;11.528;2023-05-20T02:34:29;10.10;;;6.30;;
3867;SDS011;1949;48.152;11.528;2023-05-20T02:36:57;11.07;;;6.57;;
3867;SDS011;1949;48.152;11.528;2023-05-20T02:39:23;11.87;;;6.63;;
3867;SDS011;1949;48.152;11.528;2023-05-20T02:41:50;21.70;;;7.80;;
3867;SDS011;1949;48.152;11.528;2023-05-20T02:44:19;11.40;;;6.23;;
3867;SDS011;1949;48.152;11.528;2023-05-20T02:46:47;11.70;;;6.57;;
3867;SDS011;1949;48.152;11.528;2023-05-20T02:49:15;10.40;;;6.90;;
3867;SDS011;1949;48.152;11.528;2023-05-20T02:51:40;12.00;;;7.10;;
3867;SDS011;1949;48.152;11.528;2023-05-20T02:54:06;10.30;;;5.73;;
3867;SDS011;1949;48.152;11.528;2023-05-20T02:56:38;23.37;;;7.40;;
3867;SDS011;1949;48.152;11.528;2023-05-20T02:59:06;14.03;;;7.27;;
3867;SDS011;1949;48.152;11.528;2023-05-20T03:01:32;9.37;;;6.10;;
3867;SDS011;1949;48.152;11.528;2023-05-20T03:04:05;9.93;;;6.07;;
3867;SDS011;1949;48.152;11.528;2023-05-20T03:06:31;14.50;;;6.40;;
3867;SDS011;1949;48.152;11.528;2023-05-20T03:08:57;13.80;;;6.17;;
3867;SDS011;1949;48.152;11.528;2023-05-20T03:11:24;13.57;;;7.70;;
3867;SDS011;1949;48.152;11.528;2023-05-20T03:13:51;15.63;;;7.90;;
3867;SDS011;1949;48.152;11.528;2023-05-20T03:18:52;12.40;;;6.33;;
3867;SDS011;1949;48.152;11.528;2023-05-20T03:21:18;18.13;;;7.70;;
3867;SDS011;1949;48.152;11.528;2023-05-20T03:23:48;11.50;;;7.40;;
3867;SDS011;1949;48.152;11.528;2023-05-20T03:28:45;19.20;;;7.40;;
3867;SDS011;1949;48.152;11.528;2023-05-20T03:31:12;14.50;;;7.30;;
3867;SDS011;1949;48.152;11.528;2023-05-20T03:33:38;18.73;;;7.50;;
3867;SDS011;1949;48.152;11.528;2023-05-20T03:36:05;19.53;;;7.43;;
3867;SDS011;1949;48.152;11.528;2023-05-20T03:38:33;14.47;;;7.30;;
3867;SDS011;1949;48.152;11.528;2023-05-20T03:41:03;15.50;;;7.37;;
3867;SDS011;1949;48.152;11.528;2023-05-20T03:43:32;15.03;;;6.80;;
3867;SDS011;1949;48.152;11.528;2023-05-20T03:45:57;15.83;;;7.97;;
3867;SDS011;1949;48.152;11.528;2023-05-20T03:48:24;17.60;;;7.23;;
3867;SDS011;1949;48.152;11.528;2023-05-20T03:50:53;22.03;;;7.10;;
3867;SDS011;1949;48.152;11.528;2023-05-20T03:53:18;14.77;;;7.10;;
3867;SDS011;1949;48.152;11.528;2023-05-20T03:55:48;12.63;;;6.93;;
3867;SDS011;1949;48.152;11.528;2023-05-20T03:58:16;17.60;;;8.43;;
3867;SDS011;1949;48.152;11.528;2023-05-20T04:00:42;14.03;;;7.37;;
3867;SDS011;1949;48.152;11.528;2023-05-20T04:03:22;21.30;;;7.60;;
3867;SDS011;1949;48.152;11.528;2023-05-20T04:05:48;25.83;;;7.23;;
3867;SDS011;1949;48.152;11.528;2023-05-20T04:08:15;17.53;;;7.47;;
3867;SDS011;1949;48.152;11.528;2023-05-20T04:10:43;17.40;;;7.60;;
3867;SDS011;1949;48.152;11.528;2023-05-20T04:13:10;13.70;;;7.47;;
3867;SDS011;1949;48.152;11.528;2023-05-20T04:15:37;9.50;;;6.37;;
3867;SDS011;1949;48.152;11.528;2023-05-20T04:18:04;17.63;;;6.67;;
3867;SDS011;1949;48.152;11.528;2023-05-20T04:20:35;11.97;;;6.80;;
3867;SDS011;1949;48.152;11.528;2023-05-20T04:23:01;12.70;;;6.57;;
3867;SDS011;1949;48.152;11.528;2023-05-20T04:25:29;12.40;;;7.13;;
3867;SDS011;1949;48.152;11.528;2023-05-20T04:27:58;18.13;;;7.30;;
3867;SDS011;1949;48.152;11.528;2023-05-20T04:30:24;13.60;;;7.47;;
3867;SDS011;1949;48.152;11.528;2023-05-20T04:32:50;17.00;;;7.47;;
3867;SDS011;1949;48.152;11.528;2023-05-20T04:35:16;14.20;;;7.60;;
3867;SDS011;1949;48.152;11.528;2023-05-20T04:37:42;14.90;;;7.50;;
3867;SDS011;1949;48.152;11.528;2023-05-20T04:40:17;15.27;;;8.33;;
3867;SDS011;1949;48.152;11.528;2023-05-20T04:42:43;17.87;;;8.80;;
3867;SDS011;1949;48.152;11.528;2023-05-20T04:45:10;16.30;;;8.20;;
3867;SDS011;1949;48.152;11.528;2023-05-20T04:47:39;18.17;;;8.17;;
3867;SDS011;1949;48.152;11.528;2023-05-20T04:50:06;18.03;;;9.30;;
3867;SDS011;1949;48.152;11.528;2023-05-20T04:52:42;20.80;;;9.73;;
3867;SDS011;1949;48.152;11.528;2023-05-20T04:55:24;23.60;;;9.20;;
3867;SDS011;1949;48.152;11.528;2023-05-20T04:57:51;18.87;;;8.63;;
3867;SDS011;1949;48.152;11.528;2023-05-20T05:02:47;19.87;;;8.73;;
3867;SDS011;1949;48.152;11.528;2023-05-20T05:07:45;21.17;;;10.73;;
3867;SDS011;1949;48.152;11.528;2023-05-20T05:10:11;23.60;;;10.67;;
3867;SDS011;1949;48.152;11.528;2023-05-20T05:12:36;16.20;;;9.77;;
3867;SDS011;1949;48.152;11.528;2023-05-20T05:15:03;32.27;;;12.70;;
3867;SDS011;1949;48.152;11.528;2023-05-20T05:17:31;34.90;;;16.60;;
3867;SDS011;1949;48.152;11.528;2023-05-20T05:19:56;25.10;;;11.37;;
3867;SDS011;1949;48.152;11.528;2023-05-20T05:22:22;30.17;;;11.60;;
3867;SDS011;1949;48.152;11.528;2023-05-20T05:24:49;19.73;;;9.07;;
3867;SDS011;1949;48.152;11.528;2023-05-20T05:27:22;20.63;;;8.90;;
3867;SDS011;1949;48.152;11.528;2023-05-20T05:29:48;23.20;;;10.13;;
3867;SDS011;1949;48.152;11.528;2023-05-20T05:32:14;24.30;;;10.17;;
3867;SDS011;1949;48.152;11.528;2023-05-20T05:34:40;17.90;;;8.97;;
3867;SDS011;1949;48.152;11.528;2023-05-20T05:37:07;21.37;;;9.17;;
3867;SDS011;1949;48.152;11.528;2023-05-20T05:39:39;20.83;;;10.27;;
3867;SDS011;1949;48.152;11.528;2023-05-20T05:42:04;17.90;;;10.10;;
3867;SDS011;1949;48.152;11.528;2023-05-20T05:44:32;22.07;;;10.47;;
3867;SDS011;1949;48.152;11.528;2023-05-20T05:46:58;21.60;;;9.57;;
3867;SDS011;1949;48.152;11.528;2023-05-20T05:49:25;23.57;;;10.07;;
3867;SDS011;1949;48.152;11.528;2023-05-20T05:51:51;23.07;;;9.60;;
3867;SDS011;1949;48.152;11.528;2023-05-20T05:54:16;18.23;;;10.63;;
3867;SDS011;1949;48.152;11.528;2023-05-20T05:56:44;17.93;;;9.93;;
3867;SDS011;1949;48.152;11.528;2023-05-20T05:59:12;18.47;;;10.57;;
3867;SDS011;1949;48.152;11.528;2023-05-20T06:01:37;18.30;;;10.50;;
3867;SDS011;1949;48.152;11.528;2023-05-20T06:04:03;15.47;;;8.90;;
3867;SDS011;1949;48.152;11.528;2023-05-20T06:06:29;21.20;;;9.80;;
3867;SDS011;1949;48.152;11.528;2023-05-20T06:08:56;18.63;;;9.90;;
3867;SDS011;1949;48.152;11.528;2023-05-20T06:11:22;16.90;;;8.40;;
3867;SDS011;1949;48.152;11.528;2023-05-20T06:13:55;27.47;;;13.77;;
3867;SDS011;1949;48.152;11.528;2023-05-20T06:16:23;28.60;;;12.77;;
3867;SDS011;1949;48.152;11.528;2023-05-20T06:18:48;20.53;;;10.07;;
3867;SDS011;1949;48.152;11.528;2023-05-20T06:21:15;23.90;;;11.50;;
3867;SDS011;1949;48.152;11.528;2023-05-20T06:23:41;22.40;;;11.83;;
3867;SDS011;1949;48.152;11.528;2023-05-20T06:26:09;32.17;;;12.90;;
3867;SDS011;1949;48.152;11.528;2023-05-20T06:28:37;22.27;;;11.33;;
3867;SDS011;1949;48.152;11.528;2023-05-20T06:31:03;20.47;;;10.90;;
3867;SDS011;1949;48.152;11.528;2023-05-20T06:33:38;24.77;;;10.10;;
3867;SDS011;1949;48.152;11.528;2023-05-20T06:36:03;21.67;;;10.77;;
3867;SDS011;1949;48.152;11.528;2023-05-20T06:38:29;23.70;;;11.60;;
3867;SDS011;1949;48.152;11.528;2023-05-20T06:41:02;23.57;;;10.70;;
3867;SDS011;1949;48.152;11.528;2023-05-20T06:43:28;17.97;;;9.10;;
3867;SDS011;1949;48.152;11.528;2023-05-20T06:45:53;29.30;;;12.17;;
3867;SDS011;1949;48.152;11.528;2023-05-20T06:48:19;22.37;;;12.50;;
3867;SDS011;1949;48.152;11.528;2023-05-20T06:50:45;23.73;;;11.03;;
3867;SDS011;1949;48.152;11.528;2023-05-20T06:53:10;25.57;;;12.47;;
3867;SDS011;1949;48.152;11.528;2023-05-20T06:55:38;35.87;;;17.20;;
3867;SDS011;1949;48.152;11.528;2023-05-20T06:58:04;32.07;;;14.33;;
3867;SDS011;1949;48.152;11.528;2023-05-20T07:00:30;39.73;;;14.03;;
3867;SDS011;1949;48.152;11.528;2023-05-20T07:02:55;27.97;;;13.63;;
3867;SDS011;1949;48.152;11.528;2023-05-20T07:05:22;31.37;;;13.87;;
3867;SDS011;1949;48.152;11.528;2023-05-20T07:07:48;27.30;;;11.80;;
3867;SDS011;1949;48.152;11.528;2023-05-20T07:10:14;22.40;;;10.70;;
3867;SDS011;1949;48.152;11.528;2023-05-20T07:12:40;26.13;;;12.23;;
3867;SDS011;1949;48.152;11.528;2023-05-20T07:15:12;23.43;;;10.00;;
3867;SDS011;1949;48.152;11.528;2023-05-20T07:17:39;20.17;;;9.80;;
3867;SDS011;1949;48.152;11.528;2023-05-20T07:20:06;22.23;;;9.33;;
3867;SDS011;1949;48.152;11.528;2023-05-20T07:22:32;25.83;;;11.27;;
3867;SDS011;1949;48.152;11.528;2023-05-20T07:24:58;19.13;;;10.27;;
3867;SDS011;1949;48.152;11.528;2023-05-20T07:30:00;24.63;;;13.43;;
3867;SDS011;1949;48.152;11.528;2023-05-20T07:32:29;21.27;;;11.27;;
3867;SDS011;1949;48.152;11.528;2023-05-20T07:35:00;27.33;;;12.77;;
3867;SDS011;1949;48.152;11.528;2023-05-20T07:37:30;22.97;;;11.43;;
3867;SDS011;1949;48.152;11.528;2023-05-20T07:39:58;34.60;;;11.30;;
3867;SDS011;1949;48.152;11.528;2023-05-20T07:42:25;26.13;;;10.70;;
3867;SDS011;1949;48.152;11.528;2023-05-20T07:44:52;17.00;;;9.83;;
3867;SDS011;1949;48.152;11.528;2023-05-20T07:47:19;16.97;;;9.57;;
3867;SDS011;1949;48.152;11.528;2023-05-20T07:49:46;18.00;;;9.83;;
3867;SDS011;1949;48.152;11.528;2023-05-20T07:52:14;16.83;;;9.53;;
3867;SDS011;1949;48.152;11.528;2023-05-20T07:54:46;15.97;;;9.47;;
3867;SDS011;1949;48.152;11.528;2023-05-20T07:57:11;20.70;;;10.57;;
3867;SDS011;1949;48.152;11.528;2023-05-20T08:02:10;16.67;;;10.20;;
3867;SDS011;1949;48.152;11.528;2023-05-20T08:04:38;19.10;;;9.77;;
3867;SDS011;1949;48.152;11.528;2023-05-20T08:07:06;19.00;;;10.17;;
3867;SDS011;1949;48.152;11.528;2023-05-20T08:09:32;18.57;;;9.63;;
3867;SDS011;1949;48.152;11.528;2023-05-20T08:12:01;40.13;;;10.87;;
3867;SDS011;1949;48.152;11.528;2023-05-20T08:14:27;21.50;;;9.30;;
3867;SDS011;1949;48.152;11.528;2023-05-20T08:16:53;19.47;;;10.50;;
3867;SDS011;1949;48.152;11.528;2023-05-20T08:21:54;17.63;;;9.00;;
3867;SDS011;1949;48.152;11.528;2023-05-20T08:24:20;15.93;;;9.27;;
3867;SDS011;1949;48.152;11.528;2023-05-20T08:26:47;16.33;;;8.27;;
3867;SDS011;1949;48.152;11.528;2023-05-20T08:29:13;12.90;;;7.87;;
3867;SDS011;1949;48.152;11.528;2023-05-20T08:31:40;12.10;;;8.23;;
3867;SDS011;1949;48.152;11.528;2023-05-20T08:34:10;11.70;;;7.40;;
3867;SDS011;1949;48.152;11.528;2023-05-20T08:36:37;13.80;;;8.10;;
3867;SDS011;1949;48.152;11.528;2023-05-20T08:39:04;13.87;;;8.70;;
3867;SDS011;1949;48.152;11.528;2023-05-20T08:41:30;21.17;;;11.13;;
3867;SDS011;1949;48.152;11.528;2023-05-20T08:46:28;11.37;;;7.63;;
3867;SDS011;1949;48.152;11.528;2023-05-20T08:48:58;10.67;;;6.90;;
3867;SDS011;1949;48.152;11.528;2023-05-20T08:51:25;11.73;;;7.90;;
3867;SDS011;1949;48.152;11.528;2023-05-20T08:53:53;12.13;;;6.97;;
3867;SDS011;1949;48.152;11.528;2023-05-20T08:56:24;9.63;;;6.40;;
3867;SDS011;1949;48.152;11.528;2023-05-20T08:58:51;12.87;;;6.63;;
3867;SDS011;1949;48.152;11.528;2023-05-20T09:01:22;10.87;;;6.80;;
3867;SDS011;1949;48.152;11.528;2023-05-20T09:03:55;10.03;;;6.40;;
3867;SDS011;1949;48.152;11.528;2023-05-20T09:08:51;10.97;;;5.90;;
3867;SDS011;1949;48.152;11.528;2023-05-20T09:11:20;10.20;;;6.33;;
3867;SDS011;1949;48.152;11.528;2023-05-20T09:13:49;8.13;;;5.87;;
3867;SDS011;1949;48.152;11.528;2023-05-20T09:16:15;8.47;;;5.90;;
3867;SDS011;1949;48.152;11.528;2023-05-20T09:18:41;10.37;;;5.80;;
3867;SDS011;1949;48.152;11.528;2023-05-20T09:21:08;9.57;;;6.53;;
3867;SDS011;1949;48.152;11.528;2023-05-20T09:23:37;13.03;;;8.20;;
3867;SDS011;1949;48.152;11.528;2023-05-20T09:28:36;16.27;;;8.23;;
3867;SDS011;1949;48.152;11.528;2023-05-20T09:31:06;11.67;;;7.10;;
3867;SDS011;1949;48.152;11.528;2023-05-20T09:33:33;10.00;;;5.70;;
3867;SDS011;1949;48.152;11.528;2023-05-20T09:36:06;8.10;;;5.13;;
3867;SDS011;1949;48.152;11.528;2023-05-20T09:38:33;9.10;;;5.20;;
3867;SDS011;1949;48.152;11.528;2023-05-20T09:41:08;7.23;;;5.30;;
3867;SDS011;1949;48.152;11.528;2023-05-20T09:43:44;8.90;;;5.10;;
3867;SDS011;1949;48.152;11.528;2023-05-20T09:46:10;10.20;;;5.17;;
3867;SDS011;1949;48.152;11.528;2023-05-20T09:48:36;13.20;;;4.60;;
3867;SDS011;1949;48.152;11.528;2023-05-20T09:51:03;8.20;;;5.33;;
3867;SDS011;1949;48.152;11.528;2023-05-20T09:53:30;8.00;;;5.50;;
3867;SDS011;1949;48.152;11.528;2023-05-20T09:56:01;10.00;;;5.20;;
3867;SDS011;1949;48.152;11.528;2023-05-20T09:58:35;9.27;;;5.30;;
3867;SDS011;1949;48.152;11.528;2023-05-20T10:03:32;14.83;;;5.13;;
3867;SDS011;1949;48.152;11.528;2023-05-20T10:18:10;6.27;;;4.30;;
3867;SDS011;1949;48.152;11.528;2023-05-20T10:20:57;10.67;;;4.93;;
3867;SDS011;1949;48.152;11.528;2023-05-20T10:23:23;17.07;;;8.47;;
3867;SDS011;1949;48.152;11.528;2023-05-20T10:25:52;81.17;;;33.87;;
3867;SDS011;1949;48.152;11.528;2023-05-20T10:28:34;33.80;;;16.10;;
3867;SDS011;1949;48.152;11.528;2023-05-20T10:31:02;18.63;;;9.73;;
3867;SDS011;1949;48.152;11.528;2023-05-20T10:33:42;16.67;;;7.80;;
3867;SDS011;1949;48.152;11.528;2023-05-20T10:36:21;36.90;;;16.73;;
3867;SDS011;1949;48.152;11.528;2023-05-20T10:38:54;32.60;;;17.50;;
3867;SDS011;1949;48.152;11.528;2023-05-20T10:41:26;52.63;;;24.30;;
3867;SDS011;1949;48.152;11.528;2023-05-20T10:44:02;20.53;;;10.53;;
3867;SDS011;1949;48.152;11.528;2023-05-20T10:46:29;18.03;;;9.77;;
3867;SDS011;1949;48.152;11.528;2023-05-20T10:48:56;15.43;;;7.30;;
3867;SDS011;1949;48.152;11.528;2023-05-20T10:51:23;8.80;;;5.00;;
3867;SDS011;1949;48.152;11.528;2023-05-20T10:53:54;14.93;;;4.50;;
3867;SDS011;1949;48.152;11.528;2023-05-20T10:56:24;9.67;;;5.23;;
3867;SDS011;1949;48.152;11.528;2023-05-20T10:58:51;6.73;;;4.23;;
3867;SDS011;1949;48.152;11.528;2023-05-20T11:01:22;7.53;;;4.17;;
3867;SDS011;1949;48.152;11.528;2023-05-20T11:03:50;5.93;;;4.27;;
3867;SDS011;1949;48.152;11.528;2023-05-20T11:08:52;5.30;;;3.50;;
3867;SDS011;1949;48.152;11.528;2023-05-20T11:11:19;25.60;;;13.33;;
3867;SDS011;1949;48.152;11.528;2023-05-20T11:16:29;34.17;;;15.83;;
3867;SDS011;1949;48.152;11.528;2023-05-20T11:18:59;12.50;;;7.30;;
3867;SDS011;1949;48.152;11.528;2023-05-20T11:21:26;14.43;;;7.53;;
3867;SDS011;1949;48.152;11.528;2023-05-20T11:23:52;9.97;;;4.97;;
3867;SDS011;1949;48.152;11.528;2023-05-20T11:26:19;9.80;;;5.00;;
3867;SDS011;1949;48.152;11.528;2023-05-20T11:28:45;9.90;;;4.67;;
3867;SDS011;1949;48.152;11.528;2023-05-20T11:31:11;6.93;;;3.97;;
3867;SDS011;1949;48.152;11.528;2023-05-20T11:33:40;9.07;;;4.23;;
3867;SDS011;1949;48.152;11.528;2023-05-20T11:36:08;7.20;;;5.00;;
3867;SDS011;1949;48.152;11.528;2023-05-20T11:38:34;5.07;;;3.10;;
3867;SDS011;1949;48.152;11.528;2023-05-20T11:41:00;4.67;;;3.60;;
3867;SDS011;1949;48.152;11.528;2023-05-20T11:43:26;5.83;;;2.97;;
3867;SDS011;1949;48.152;11.528;2023-05-20T11:46:03;4.73;;;3.43;;
3867;SDS011;1949;48.152;11.528;2023-05-20T11:48:29;4.93;;;2.90;;
3867;SDS011;1949;48.152;11.528;2023-05-20T11:50:55;4.37;;;3.10;;
3867;SDS011;1949;48.152;11.528;2023-05-20T11:53:22;3.83;;;2.90;;
3867;SDS011;1949;48.152;11.528;2023-05-20T12:03:21;8.93;;;4.23;;
3867;SDS011;1949;48.152;11.528;2023-05-20T12:05:49;4.60;;;3.23;;
3867;SDS011;1949;48.152;11.528;2023-05-20T12:08:20;4.20;;;3.30;;
3867;SDS011;1949;48.152;11.528;2023-05-20T12:10:48;6.40;;;3.10;;
3867;SDS011;1949;48.152;11.528;2023-05-20T12:13:14;7.80;;;3.30;;
3867;SDS011;1949;48.152;11.528;2023-05-20T12:15:47;11.77;;;2.97;;
3867;SDS011;1949;48.152;11.528;2023-05-20T12:18:13;6.23;;;3.53;;
3867;SDS011;1949;48.152;11.528;2023-05-20T12:20:43;4.30;;;3.20;;
3867;SDS011;1949;48.152;11.528;2023-05-20T12:23:09;4.10;;;2.87;;
3867;SDS011;1949;48.152;11.528;2023-05-20T12:25:35;3.87;;;3.03;;
3867;SDS011;1949;48.152;11.528;2023-05-20T12:28:02;6.37;;;3.90;;
3867;SDS011;1949;48.152;11.528;2023-05-20T12:30:28;10.30;;;4.90;;
3867;SDS011;1949;48.152;11.528;2023-05-20T12:32:54;7.00;;;4.30;;
3867;SDS011;1949;48.152;11.528;2023-05-20T12:35:24;6.80;;;4.40;;
3867;SDS011;1949;48.152;11.528;2023-05-20T12:38:05;7.13;;;4.30;;
3867;SDS011;1949;48.152;11.528;2023-05-20T12:40:31;6.17;;;3.97;;
3867;SDS011;1949;48.152;11.528;2023-05-20T12:43:00;9.07;;;4.77;;
3867;SDS011;1949;48.152;11.528;2023-05-20T12:45:28;12.83;;;4.90;;
3867;SDS011;1949;48.152;11.528;2023-05-20T12:47:55;8.03;;;4.60;;
3867;SDS011;1949;48.152;11.528;2023-05-20T12:50:23;10.10;;;5.10;;
3867;SDS011;1949;48.152;11.528;2023-05-20T12:52:50;8.53;;;4.73;;
3867;SDS011;1949;48.152;11.528;2023-05-20T12:55:22;6.20;;;4.83;;
3867;SDS011;1949;48.152;11.528;2023-05-20T12:57:49;7.77;;;5.10;;
3867;SDS011;1949;48.152;11.528;2023-05-20T13:00:17;9.90;;;4.50;;
3867;SDS011;1949;48.152;11.528;2023-05-20T13:02:42;6.97;;;4.13;;
3867;SDS011;1949;48.152;11.528;2023-05-20T13:05:08;8.70;;;4.27;;
3867;SDS011;1949;48.152;11.528;2023-05-20T13:07:35;9.17;;;5.20;;
3867;SDS011;1949;48.152;11.528;2023-05-20T13:10:13;8.20;;;4.70;;
3867;SDS011;1949;48.152;11.528;2023-05-20T13:12:38;8.30;;;4.73;;
3867;SDS011;1949;48.152;11.528;2023-05-20T13:15:09;9.00;;;4.53;;
3867;SDS011;1949;48.152;11.528;2023-05-20T13:17:38;9.53;;;4.07;;
3867;SDS011;1949;48.152;11.528;2023-05-20T13:20:05;6.67;;;4.00;;
3867;SDS011;1949;48.152;11.528;2023-05-20T13:22:31;9.33;;;5.20;;
3867;SDS011;1949;48.152;11.528;2023-05-20T13:24:57;7.70;;;5.20;;
3867;SDS011;1949;48.152;11.528;2023-05-20T13:27:23;7.60;;;5.27;;
3867;SDS011;1949;48.152;11.528;2023-05-20T13:29:49;6.50;;;4.80;;
3867;SDS011;1949;48.152;11.528;2023-05-20T13:32:14;9.43;;;5.90;;
3867;SDS011;1949;48.152;11.528;2023-05-20T13:34:45;6.13;;;4.30;;
3867;SDS011;1949;48.152;11.528;2023-05-20T13:39:43;7.53;;;4.90;;
3867;SDS011;1949;48.152;11.528;2023-05-20T13:42:09;12.63;;;5.03;;
3867;SDS011;1949;48.152;11.528;2023-05-20T13:44:50;11.33;;;5.27;;
3867;SDS011;1949;48.152;11.528;2023-05-20T13:47:17;7.30;;;5.07;;
3867;SDS011;1949;48.152;11.528;2023-05-20T13:49:44;9.03;;;4.20;;
3867;SDS011;1949;48.152;11.528;2023-05-20T13:52:10;8.03;;;5.30;;
3867;SDS011;1949;48.152;11.528;2023-05-20T13:54:46;8.47;;;5.00;;
3867;SDS011;1949;48.152;11.528;2023-05-20T13:59:42;7.37;;;4.80;;
3867;SDS011;1949;48.152;11.528;2023-05-20T14:04:37;10.97;;;5.87;;
3867;SDS011;1949;48.152;11.528;2023-05-20T14:07:05;8.37;;;4.80;;
3867;SDS011;1949;48.152;11.528;2023-05-20T14:09:31;9.23;;;5.50;;
3867;SDS011;1949;48.152;11.528;2023-05-20T14:11:57;7.23;;;4.97;;
3867;SDS011;1949;48.152;11.528;2023-05-20T14:14:24;12.23;;;5.53;;
3867;SDS011;1949;48.152;11.528;2023-05-20T14:16:50;11.00;;;5.70;;
3867;SDS011;1949;48.152;11.528;2023-05-20T14:19:22;10.17;;;5.70;;
3867;SDS011;1949;48.152;11.528;2023-05-20T14:21:49;11.23;;;6.67;;
3867;SDS011;1949;48.152;11.528;2023-05-20T14:24:15;10.00;;;6.00;;
3867;SDS011;1949;48.152;11.528;2023-05-20T14:26:41;11.00;;;6.90;;
3867;SDS011;1949;48.152;11.528;2023-05-20T14:31:45;10.47;;;5.80;;
3867;SDS011;1949;48.152;11.528;2023-05-20T14:34:11;11.67;;;6.10;;
3867;SDS011;1949;48.152;11.528;2023-05-20T14:36:37;35.43;;;6.00;;
3867;SDS011;1949;48.152;11.528;2023-05-20T14:39:17;13.70;;;6.00;;
3867;SDS011;1949;48.152;11.528;2023-05-20T14:41:53;17.33;;;6.07;;
3867;SDS011;1949;48.152;11.528;2023-05-20T14:44:20;12.30;;;5.77;;
3867;SDS011;1949;48.152;11.528;2023-05-20T14:46:50;36.07;;;18.30;;
3867;SDS011;1949;48.152;11.528;2023-05-20T14:49:17;94.83;;;42.10;;
3867;SDS011;1949;48.152;11.528;2023-05-20T14:51:43;50.47;;;24.93;;
3867;SDS011;1949;48.152;11.528;2023-05-20T14:54:08;37.80;;;15.37;;
3867;SDS011;1949;48.152;11.528;2023-05-20T14:59:03;15.50;;;8.50;;
3867;SDS011;1949;48.152;11.528;2023-05-20T15:04:19;14.73;;;8.93;;
3867;SDS011;1949;48.152;11.528;2023-05-20T15:06:45;11.73;;;6.70;;
3867;SDS011;1949;48.152;11.528;2023-05-20T15:09:14;11.10;;;6.80;;
3867;SDS011;1949;48.152;11.528;2023-05-20T15:11:40;13.43;;;6.67;;
3867;SDS011;1949;48.152;11.528;2023-05-20T15:14:05;18.33;;;10.07;;
3867;SDS011;1949;48.152;11.528;2023-05-20T15:16:37;28.20;;;13.40;;
3867;SDS011;1949;48.152;11.528;2023-05-20T15:19:03;36.03;;;16.13;;
3867;SDS011;1949;48.152;11.528;2023-05-20T15:21:29;40.60;;;21.10;;
3867;SDS011;1949;48.152;11.528;2023-05-20T15:23:57;35.93;;;19.27;;
3867;SDS011;1949;48.152;11.528;2023-05-20T15:26:24;29.40;;;16.30;;
3867;SDS011;1949;48.152;11.528;2023-05-20T15:28:50;42.17;;;19.00;;
3867;SDS011;1949;48.152;11.528;2023-05-20T15:31:15;22.33;;;12.07;;
3867;SDS011;1949;48.152;11.528;2023-05-20T15:33:41;26.20;;;12.27;;
3867;SDS011;1949;48.152;11.528;2023-05-20T15:36:11;30.03;;;16.83;;
3867;SDS011;1949;48.152;11.528;2023-05-20T15:38:36;16.40;;;9.20;;
3867;SDS011;1949;48.152;11.528;2023-05-20T15:41:02;13.00;;;7.03;;
3867;SDS011;1949;48.152;11.528;2023-05-20T15:43:28;15.00;;;7.90;;
3867;SDS011;1949;48.152;11.528;2023-05-20T15:45:55;14.63;;;7.07;;
3867;SDS011;1949;48.152;11.528;2023-05-20T15:48:22;13.80;;;8.00;;
3867;SDS011;1949;48.152;11.528;2023-05-20T15:53:25;34.63;;;19.50;;
3867;SDS011;1949;48.152;11.528;2023-05-20T15:56:02;23.67;;;11.57;;
3867;SDS011;1949;48.152;11.528;2023-05-20T15:58:28;14.93;;;9.07;;
3867;SDS011;1949;48.152;11.528;2023-05-20T16:01:01;14.73;;;8.60;;
3867;SDS011;1949;48.152;11.528;2023-05-20T16:03:27;86.23;;;38.63;;
3867;SDS011;1949;48.152;11.528;2023-05-20T16:05:53;25.50;;;13.63;;
3867;SDS011;1949;48.152;11.528;2023-05-20T16:08:18;47.13;;;23.47;;
3867;SDS011;1949;48.152;11.528;2023-05-20T16:10:49;21.30;;;12.77;;
3867;SDS011;1949;48.152;11.528;2023-05-20T16:13:17;17.43;;;11.07;;
3867;SDS011;1949;48.152;11.528;2023-05-20T16:15:42;13.27;;;8.23;;
3867;SDS011;1949;48.152;11.528;2023-05-20T16:18:13;14.03;;;7.87;;
3867;SDS011;1949;48.152;11.528;2023-05-20T16:20:39;25.43;;;13.73;;
3867;SDS011;1949;48.152;11.528;2023-05-20T16:23:07;72.03;;;36.80;;
3867;SDS011;1949;48.152;11.528;2023-05-20T16:25:36;42.80;;;17.53;;
3867;SDS011;1949;48.152;11.528;2023-05-20T16:28:04;35.40;;;17.60;;
3867;SDS011;1949;48.152;11.528;2023-05-20T16:30:38;28.93;;;11.83;;
3867;SDS011;1949;48.152;11.528;2023-05-20T16:35:48;33.47;;;18.67;;